sensor_id;sensor_type;location;lat;lon;timestamp;pressure;altitude;pressure_sealevel;temperature;humidity
83843;BME280;73869;52.336;21.182;2024-01-15T00:01:57;98496.63;;;0.74;92.84
83843;BME280;73869;52.336;21.182;2024-01-15T00:04:24;98490.88;;;0.71;93.17
83843;BME280;73869;52.336;21.182;2024-01-15T00:06:50;98483.47;;;0.79;93.06
83843;BME280;73869;52.336;21.182;2024-01-15T00:09:17;98467.03;;;0.69;93.00
83843;BME280;73869;52.336;21.182;2024-01-15T00:11:45;98476.72;;;0.83;92.47
83843;BME280;73869;52.336;21.182;2024-01-15T00:14:12;98461.28;;;0.72;92.67
83843;BME280;73869;52.336;21.182;2024-01-15T00:16:41;98462.94;;;0.86;92.28
83843;BME280;73869;52.336;21.182;2024-01-15T00:19:07;98465.81;;;0.85;92.10
83843;BME280;73869;52.336;21.182;2024-01-15T00:21:34;98458.81;;;0.90;92.10
83843;BME280;73869;52.336;21.182;2024-01-15T00:24:01;98452.88;;;0.88;91.92
83843;BME280;73869;52.336;21.182;2024-01-15T00:26:27;98444.84;;;0.88;91.95
83843;BME280;73869;52.336;21.182;2024-01-15T00:28:54;98449.78;;;0.91;91.44
83843;BME280;73869;52.336;21.182;2024-01-15T00:31:20;98406.84;;;0.67;92.09
83843;BME280;73869;52.336;21.182;2024-01-15T00:33:48;98431.09;;;0.85;92.00
83843;BME280;73869;52.336;21.182;2024-01-15T00:36:15;98424.69;;;0.86;91.59
83843;BME280;73869;52.336;21.182;2024-01-15T00:38:42;98434.56;;;0.85;91.27
83843;BME280;73869;52.336;21.182;2024-01-15T00:41:08;98425.13;;;0.83;91.89
83843;BME280;73869;52.336;21.182;2024-01-15T00:43:35;98419.16;;;0.81;92.40
83843;BME280;73869;52.336;21.182;2024-01-15T00:46:02;98393.06;;;0.70;91.77
83843;BME280;73869;52.336;21.182;2024-01-15T00:48:31;98407.25;;;0.83;91.55
83843;BME280;73869;52.336;21.182;2024-01-15T00:51:00;98407.03;;;0.78;92.34
83843;BME280;73869;52.336;21.182;2024-01-15T00:53:27;98407.44;;;0.88;91.77
83843;BME280;73869;52.336;21.182;2024-01-15T00:55:53;98403.75;;;0.83;92.33
83843;BME280;73869;52.336;21.182;2024-01-15T00:58:21;98384.22;;;0.76;91.96
83843;BME280;73869;52.336;21.182;2024-01-15T01:00:56;98397.78;;;0.87;91.66
83843;BME280;73869;52.336;21.182;2024-01-15T01:03:27;98377.03;;;0.83;91.42
83843;BME280;73869;52.336;21.182;2024-01-15T01:05:55;98387.91;;;0.88;91.32
83843;BME280;73869;52.336;21.182;2024-01-15T01:08:23;98382.97;;;0.91;91.19
83843;BME280;73869;52.336;21.182;2024-01-15T01:10:49;98383.41;;;0.88;91.34
83843;BME280;73869;52.336;21.182;2024-01-15T01:13:16;98370.84;;;0.89;90.76
83843;BME280;73869;52.336;21.182;2024-01-15T01:15:42;98372.88;;;0.93;90.64
83843;BME280;73869;52.336;21.182;2024-01-15T01:18:09;98385.03;;;0.96;90.93
83843;BME280;73869;52.336;21.182;2024-01-15T01:20:35;98366.31;;;0.89;91.41
83843;BME280;73869;52.336;21.182;2024-01-15T01:23:02;98356.88;;;0.80;91.04
83843;BME280;73869;52.336;21.182;2024-01-15T01:25:32;98375.38;;;0.88;91.30
83843;BME280;73869;52.336;21.182;2024-01-15T01:27:58;98355.44;;;0.84;91.33
83843;BME280;73869;52.336;21.182;2024-01-15T01:30:25;98354.03;;;0.75;91.85
83843;BME280;73869;52.336;21.182;2024-01-15T01:33:01;98348.69;;;0.75;92.29
83843;BME280;73869;52.336;21.182;2024-01-15T01:35:27;98350.13;;;0.78;92.67
83843;BME280;73869;52.336;21.182;2024-01-15T01:37:54;98352.78;;;0.71;93.14
83843;BME280;73869;52.336;21.182;2024-01-15T01:40:20;98346.63;;;0.71;93.43
83843;BME280;73869;52.336;21.182;2024-01-15T01:42:48;98350.13;;;0.65;93.29
83843;BME280;73869;52.336;21.182;2024-01-15T01:45:16;98348.09;;;0.60;94.08
83843;BME280;73869;52.336;21.182;2024-01-15T01:47:43;98346.41;;;0.66;93.75
83843;BME280;73869;52.336;21.182;2024-01-15T01:50:09;98336.78;;;0.65;93.97
83843;BME280;73869;52.336;21.182;2024-01-15T01:52:37;98338.41;;;0.72;93.43
83843;BME280;73869;52.336;21.182;2024-01-15T01:55:04;98328.56;;;0.60;93.25
83843;BME280;73869;52.336;21.182;2024-01-15T01:57:33;98331.63;;;0.70;93.28
83843;BME280;73869;52.336;21.182;2024-01-15T02:00:03;98315.22;;;0.60;93.02
83843;BME280;73869;52.336;21.182;2024-01-15T02:02:37;98329.78;;;0.70;93.01
83843;BME280;73869;52.336;21.182;2024-01-15T02:05:05;98318.50;;;0.68;93.34
83843;BME280;73869;52.336;21.182;2024-01-15T02:07:34;98309.22;;;0.71;93.08
83843;BME280;73869;52.336;21.182;2024-01-15T02:10:01;98290.75;;;0.56;93.44
83843;BME280;73869;52.336;21.182;2024-01-15T02:12:28;98309.84;;;0.73;93.03
83843;BME280;73869;52.336;21.182;2024-01-15T02:14:55;98301.22;;;0.64;92.56
83843;BME280;73869;52.336;21.182;2024-01-15T02:17:23;98320.53;;;0.73;92.90
83843;BME280;73869;52.336;21.182;2024-01-15T02:19:50;98292.59;;;0.62;92.42
83843;BME280;73869;52.336;21.182;2024-01-15T02:22:16;98303.88;;;0.71;92.97
83843;BME280;73869;52.336;21.182;2024-01-15T02:24:44;98304.91;;;0.76;92.18
83843;BME280;73869;52.336;21.182;2024-01-15T02:27:11;98300.78;;;0.80;91.87
83843;BME280;73869;52.336;21.182;2024-01-15T02:29:38;98288.06;;;0.76;92.27
83843;BME280;73869;52.336;21.182;2024-01-15T02:32:06;98286.22;;;0.76;91.54
83843;BME280;73869;52.336;21.182;2024-01-15T02:34:32;98286.41;;;0.81;92.23
83843;BME280;73869;52.336;21.182;2024-01-15T02:36:59;98284.19;;;0.72;92.33
83843;BME280;73869;52.336;21.182;2024-01-15T02:39:26;98274.72;;;0.69;92.50
83843;BME280;73869;52.336;21.182;2024-01-15T02:41:55;98266.69;;;0.76;91.59
83843;BME280;73869;52.336;21.182;2024-01-15T02:44:23;98272.03;;;0.76;91.84
83843;BME280;73869;52.336;21.182;2024-01-15T02:46:49;98272.84;;;0.83;90.88
83843;BME280;73869;52.336;21.182;2024-01-15T02:49:16;98261.94;;;0.84;91.06
83843;BME280;73869;52.336;21.182;2024-01-15T02:51:42;98246.38;;;0.68;91.36
83843;BME280;73869;52.336;21.182;2024-01-15T02:54:09;98228.69;;;0.67;91.08
83843;BME280;73869;52.336;21.182;2024-01-15T02:56:36;98257.22;;;0.86;91.24
83843;BME280;73869;52.336;21.182;2024-01-15T02:59:04;98241.00;;;0.81;91.21
83843;BME280;73869;52.336;21.182;2024-01-15T03:01:30;98236.44;;;0.88;90.53
83843;BME280;73869;52.336;21.182;2024-01-15T03:03:57;98230.06;;;0.89;90.26
83843;BME280;73869;52.336;21.182;2024-01-15T03:06:23;98227.00;;;0.86;90.15
83843;BME280;73869;52.336;21.182;2024-01-15T03:08:50;98198.88;;;0.77;90.09
83843;BME280;73869;52.336;21.182;2024-01-15T03:11:16;98220.00;;;0.85;90.77
83843;BME280;73869;52.336;21.182;2024-01-15T03:13:45;98219.41;;;0.83;90.88
83843;BME280;73869;52.336;21.182;2024-01-15T03:16:13;98215.94;;;0.76;91.51
83843;BME280;73869;52.336;21.182;2024-01-15T03:18:39;98204.22;;;0.77;91.32
83843;BME280;73869;52.336;21.182;2024-01-15T03:21:06;98197.63;;;0.79;91.00
83843;BME280;73869;52.336;21.182;2024-01-15T03:23:32;98199.69;;;0.77;91.30
83843;BME280;73869;52.336;21.182;2024-01-15T03:25:59;98208.75;;;0.76;91.48
83843;BME280;73869;52.336;21.182;2024-01-15T03:28:25;98208.31;;;0.79;91.66
83843;BME280;73869;52.336;21.182;2024-01-15T03:30:54;98195.16;;;0.78;91.89
83843;BME280;73869;52.336;21.182;2024-01-15T03:33:22;98195.81;;;0.73;92.21
83843;BME280;73869;52.336;21.182;2024-01-15T03:35:51;98189.44;;;0.68;92.48
83843;BME280;73869;52.336;21.182;2024-01-15T03:38:18;98183.94;;;0.63;92.81
83843;BME280;73869;52.336;21.182;2024-01-15T03:40:44;98189.06;;;0.58;93.01
83843;BME280;73869;52.336;21.182;2024-01-15T03:43:12;98181.47;;;0.61;92.95
83843;BME280;73869;52.336;21.182;2024-01-15T03:45:38;98189.28;;;0.56;93.26
83843;BME280;73869;52.336;21.182;2024-01-15T03:48:05;98183.94;;;0.56;93.56
83843;BME280;73869;52.336;21.182;2024-01-15T03:50:33;98185.75;;;0.62;93.23
83843;BME280;73869;52.336;21.182;2024-01-15T03:53:00;98173.69;;;0.53;93.29
83843;BME280;73869;52.336;21.182;2024-01-15T03:55:26;98181.50;;;0.55;93.58
83843;BME280;73869;52.336;21.182;2024-01-15T03:57:52;98168.34;;;0.53;93.55
83843;BME280;73869;52.336;21.182;2024-01-15T04:00:19;98176.75;;;0.57;93.34
83843;BME280;73869;52.336;21.182;2024-01-15T04:02:45;98167.09;;;0.56;93.24
83843;BME280;73869;52.336;21.182;2024-01-15T04:05:12;98154.75;;;0.61;92.56
83843;BME280;73869;52.336;21.182;2024-01-15T04:07:40;98157.22;;;0.63;92.65
83843;BME280;73869;52.336;21.182;2024-01-15T04:10:07;98135.06;;;0.56;92.43
83843;BME280;73869;52.336;21.182;2024-01-15T04:12:33;98143.69;;;0.58;92.91
83843;BME280;73869;52.336;21.182;2024-01-15T04:15:00;98134.63;;;0.65;91.78
83843;BME280;73869;52.336;21.182;2024-01-15T04:17:27;98129.09;;;0.60;92.26
83843;BME280;73869;52.336;21.182;2024-01-15T04:19:53;98125.78;;;0.65;91.84
83843;BME280;73869;52.336;21.182;2024-01-15T04:22:20;98126.63;;;0.65;92.03
83843;BME280;73869;52.336;21.182;2024-01-15T04:24:48;98128.88;;;0.62;92.53
83843;BME280;73869;52.336;21.182;2024-01-15T04:27:14;98120.22;;;0.66;92.08
83843;BME280;73869;52.336;21.182;2024-01-15T04:29:40;98099.69;;;0.67;91.89
83843;BME280;73869;52.336;21.182;2024-01-15T04:32:07;98090.66;;;0.61;91.36
83843;BME280;73869;52.336;21.182;2024-01-15T04:34:35;98101.97;;;0.63;92.18
83843;BME280;73869;52.336;21.182;2024-01-15T04:37:02;98085.34;;;0.55;92.16
83843;BME280;73869;52.336;21.182;2024-01-15T04:39:29;98100.31;;;0.62;91.67
83843;BME280;73869;52.336;21.182;2024-01-15T04:41:57;98092.47;;;0.67;91.34
83843;BME280;73869;52.336;21.182;2024-01-15T04:44:24;98090.63;;;0.68;91.19
83843;BME280;73869;52.336;21.182;2024-01-15T04:46:50;98078.94;;;0.62;90.76
83843;BME280;73869;52.336;21.182;2024-01-15T04:49:17;98084.25;;;0.69;91.39
83843;BME280;73869;52.336;21.182;2024-01-15T04:51:43;98078.34;;;0.60;91.92
83843;BME280;73869;52.336;21.182;2024-01-15T04:54:10;98081.22;;;0.65;91.41
83843;BME280;73869;52.336;21.182;2024-01-15T04:56:38;98073.41;;;0.64;91.14
83843;BME280;73869;52.336;21.182;2024-01-15T04:59:05;98066.16;;;0.71;89.78
83843;BME280;73869;52.336;21.182;2024-01-15T05:01:32;98069.63;;;0.78;89.67
83843;BME280;73869;52.336;21.182;2024-01-15T05:04:02;98057.53;;;0.75;89.75
83843;BME280;73869;52.336;21.182;2024-01-15T05:06:29;98061.66;;;0.71;89.85
83843;BME280;73869;52.336;21.182;2024-01-15T05:08:55;98055.91;;;0.68;89.27
83843;BME280;73869;52.336;21.182;2024-01-15T05:11:22;98050.78;;;0.66;89.45
83843;BME280;73869;52.336;21.182;2024-01-15T05:14:03;98056.25;;;0.78;89.21
83843;BME280;73869;52.336;21.182;2024-01-15T05:16:38;98051.75;;;0.78;88.86
83843;BME280;73869;52.336;21.182;2024-01-15T05:19:07;98057.06;;;0.85;89.38
83843;BME280;73869;52.336;21.182;2024-01-15T05:21:35;98062.78;;;0.88;88.40
83843;BME280;73869;52.336;21.182;2024-01-15T05:24:02;98060.13;;;0.88;88.60
83843;BME280;73869;52.336;21.182;2024-01-15T05:26:28;98047.78;;;0.87;88.36
83843;BME280;73869;52.336;21.182;2024-01-15T05:28:55;98060.91;;;0.89;88.27
83843;BME280;73869;52.336;21.182;2024-01-15T05:31:22;98038.13;;;0.86;88.78
83843;BME280;73869;52.336;21.182;2024-01-15T05:33:49;98047.78;;;0.87;88.86
83843;BME280;73869;52.336;21.182;2024-01-15T05:36:16;98057.19;;;0.96;87.71
83843;BME280;73869;52.336;21.182;2024-01-15T05:38:42;98059.84;;;0.96;88.04
83843;BME280;73869;52.336;21.182;2024-01-15T05:41:09;98058.41;;;0.94;87.90
83843;BME280;73869;52.336;21.182;2024-01-15T05:43:35;98055.13;;;0.92;88.19
83843;BME280;73869;52.336;21.182;2024-01-15T05:46:02;98057.19;;;0.96;87.73
83843;BME280;73869;52.336;21.182;2024-01-15T05:48:29;98059.03;;;0.96;87.56
83843;BME280;73869;52.336;21.182;2024-01-15T05:50:57;98054.91;;;0.93;87.96
83843;BME280;73869;52.336;21.182;2024-01-15T05:53:23;98055.75;;;0.94;88.23
83843;BME280;73869;52.336;21.182;2024-01-15T05:55:50;98044.22;;;0.93;87.90
83843;BME280;73869;52.336;21.182;2024-01-15T05:58:16;98052.69;;;0.90;88.57
83843;BME280;73869;52.336;21.182;2024-01-15T06:00:43;98052.84;;;0.95;88.23
83843;BME280;73869;52.336;21.182;2024-01-15T06:03:10;98042.81;;;0.91;89.09
83843;BME280;73869;52.336;21.182;2024-01-15T06:05:37;98049.38;;;0.95;88.36
83843;BME280;73869;52.336;21.182;2024-01-15T06:08:05;98041.81;;;0.85;89.11
83843;BME280;73869;52.336;21.182;2024-01-15T06:10:32;98040.81;;;0.86;88.83
83843;BME280;73869;52.336;21.182;2024-01-15T06:12:59;98028.19;;;0.93;88.28
83843;BME280;73869;52.336;21.182;2024-01-15T06:15:25;98032.19;;;0.84;88.85
83843;BME280;73869;52.336;21.182;2024-01-15T06:17:52;98023.56;;;0.82;88.28
83843;BME280;73869;52.336;21.182;2024-01-15T06:20:19;98021.53;;;0.78;88.56
83843;BME280;73869;52.336;21.182;2024-01-15T06:22:45;98035.06;;;0.83;88.79
83843;BME280;73869;52.336;21.182;2024-01-15T06:25:13;98024.56;;;0.88;88.06
83843;BME280;73869;52.336;21.182;2024-01-15T06:27:40;98023.28;;;0.90;88.04
83843;BME280;73869;52.336;21.182;2024-01-15T06:30:07;98018.00;;;0.84;88.76
83843;BME280;73869;52.336;21.182;2024-01-15T06:32:33;97997.06;;;0.81;87.47
83843;BME280;73869;52.336;21.182;2024-01-15T06:35:04;98018.16;;;0.89;88.09
83843;BME280;73869;52.336;21.182;2024-01-15T06:37:33;97993.41;;;0.75;88.07
83843;BME280;73869;52.336;21.182;2024-01-15T06:40:01;98012.59;;;0.90;87.43
83843;BME280;73869;52.336;21.182;2024-01-15T06:42:29;98008.13;;;0.84;87.87
83843;BME280;73869;52.336;21.182;2024-01-15T06:44:56;98009.50;;;0.93;87.48
83843;BME280;73869;52.336;21.182;2024-01-15T06:47:22;98013.03;;;0.87;87.65
83843;BME280;73869;52.336;21.182;2024-01-15T06:49:51;98023.06;;;0.92;87.16
83843;BME280;73869;52.336;21.182;2024-01-15T06:52:17;98014.69;;;0.88;87.15
83843;BME280;73869;52.336;21.182;2024-01-15T06:54:44;97998.66;;;0.88;86.89
83843;BME280;73869;52.336;21.182;2024-01-15T06:57:12;98002.13;;;0.89;87.07
83843;BME280;73869;52.336;21.182;2024-01-15T06:59:40;98002.75;;;0.91;87.19
83843;BME280;73869;52.336;21.182;2024-01-15T07:02:07;98014.25;;;0.91;87.20
83843;BME280;73869;52.336;21.182;2024-01-15T07:04:33;98011.63;;;0.85;87.81
83843;BME280;73869;52.336;21.182;2024-01-15T07:07:00;98007.88;;;0.92;87.54
83843;BME280;73869;52.336;21.182;2024-01-15T07:09:26;98008.47;;;0.94;86.75
83843;BME280;73869;52.336;21.182;2024-01-15T07:11:53;98008.09;;;0.91;88.00
83843;BME280;73869;52.336;21.182;2024-01-15T07:14:22;97997.75;;;0.70;89.85
83843;BME280;73869;52.336;21.182;2024-01-15T07:16:50;98018.47;;;0.74;90.86
83843;BME280;73869;52.336;21.182;2024-01-15T07:19:16;98002.09;;;0.64;91.44
83843;BME280;73869;52.336;21.182;2024-01-15T07:21:45;98014.00;;;0.68;90.32
83843;BME280;73869;52.336;21.182;2024-01-15T07:24:12;98007.66;;;0.63;90.86
83843;BME280;73869;52.336;21.182;2024-01-15T07:26:41;98007.84;;;0.68;90.43
83843;BME280;73869;52.336;21.182;2024-01-15T07:29:08;98013.34;;;0.73;88.92
83843;BME280;73869;52.336;21.182;2024-01-15T07:31:34;98011.78;;;0.65;90.11
83843;BME280;73869;52.336;21.182;2024-01-15T07:34:02;98017.91;;;0.66;89.63
83843;BME280;73869;52.336;21.182;2024-01-15T07:36:29;98018.03;;;0.77;88.71
83843;BME280;73869;52.336;21.182;2024-01-15T07:38:55;98015.63;;;0.69;88.36
83843;BME280;73869;52.336;21.182;2024-01-15T07:41:22;98021.31;;;0.79;88.67
83843;BME280;73869;52.336;21.182;2024-01-15T07:43:49;98005.59;;;0.65;89.65
83843;BME280;73869;52.336;21.182;2024-01-15T07:46:15;98023.66;;;0.69;90.12
83843;BME280;73869;52.336;21.182;2024-01-15T07:48:42;98013.19;;;0.68;90.30
83843;BME280;73869;52.336;21.182;2024-01-15T07:51:10;98025.34;;;0.64;90.66
83843;BME280;73869;52.336;21.182;2024-01-15T07:53:36;98026.53;;;0.68;91.06
83843;BME280;73869;52.336;21.182;2024-01-15T07:56:03;97993.91;;;0.59;90.74
83843;BME280;73869;52.336;21.182;2024-01-15T07:58:29;98006.84;;;0.62;90.73
83843;BME280;73869;52.336;21.182;2024-01-15T08:00:56;98012.19;;;0.62;90.45
83843;BME280;73869;52.336;21.182;2024-01-15T08:03:22;98005.59;;;0.65;90.34
83843;BME280;73869;52.336;21.182;2024-01-15T08:05:49;98015.25;;;0.66;90.38
83843;BME280;73869;52.336;21.182;2024-01-15T08:08:21;98010.06;;;0.71;90.03
83843;BME280;73869;52.336;21.182;2024-01-15T08:10:48;98021.53;;;0.78;88.52
83843;BME280;73869;52.336;21.182;2024-01-15T08:13:15;98007.97;;;0.79;88.81
83843;BME280;73869;52.336;21.182;2024-01-15T08:15:41;98003.22;;;0.81;87.64
83843;BME280;73869;52.336;21.182;2024-01-15T08:18:08;98018.81;;;0.84;88.28
83843;BME280;73869;52.336;21.182;2024-01-15T08:20:35;98013.34;;;0.73;89.48
83843;BME280;73869;52.336;21.182;2024-01-15T08:23:02;98015.84;;;0.68;91.65
83843;BME280;73869;52.336;21.182;2024-01-15T08:25:29;98011.59;;;0.60;91.91
83843;BME280;73869;52.336;21.182;2024-01-15T08:27:56;98016.13;;;0.60;91.97
83843;BME280;73869;52.336;21.182;2024-01-15T08:30:22;98011.00;;;0.58;91.90
83843;BME280;73869;52.336;21.182;2024-01-15T08:32:53;98020.63;;;0.59;91.92
83843;BME280;73869;52.336;21.182;2024-01-15T08:35:19;98013.47;;;0.53;91.81
83843;BME280;73869;52.336;21.182;2024-01-15T08:37:48;98016.31;;;0.58;91.18
83843;BME280;73869;52.336;21.182;2024-01-15T08:40:15;98014.56;;;0.77;88.77
83843;BME280;73869;52.336;21.182;2024-01-15T08:42:42;98021.00;;;0.94;88.73
83843;BME280;73869;52.336;21.182;2024-01-15T08:45:09;98012.75;;;0.95;88.83
83843;BME280;73869;52.336;21.182;2024-01-15T08:47:36;98020.63;;;1.15;88.36
83843;BME280;73869;52.336;21.182;2024-01-15T08:50:04;98020.41;;;1.16;86.74
83843;BME280;73869;52.336;21.182;2024-01-15T08:52:33;98017.91;;;1.21;85.06
83843;BME280;73869;52.336;21.182;2024-01-15T08:55:03;98025.63;;;1.29;84.99
83843;BME280;73869;52.336;21.182;2024-01-15T08:58:11;98014.44;;;1.21;85.54
83843;BME280;73869;52.336;21.182;2024-01-15T09:00:52;97986.06;;;0.95;85.12
83843;BME280;73869;52.336;21.182;2024-01-15T09:03:19;98027.91;;;1.08;85.60
83843;BME280;73869;52.336;21.182;2024-01-15T09:05:50;98031.38;;;1.08;83.67
83843;BME280;73869;52.336;21.182;2024-01-15T09:08:17;98033.66;;;1.05;84.20
83843;BME280;73869;52.336;21.182;2024-01-15T09:10:45;98022.00;;;0.99;84.65
83843;BME280;73869;52.336;21.182;2024-01-15T09:13:13;98035.31;;;1.06;85.30
83843;BME280;73869;52.336;21.182;2024-01-15T09:15:40;98028.06;;;0.88;87.22
83843;BME280;73869;52.336;21.182;2024-01-15T09:18:07;98030.56;;;0.83;87.82
83843;BME280;73869;52.336;21.182;2024-01-15T09:20:33;98022.91;;;0.87;87.99
83843;BME280;73869;52.336;21.182;2024-01-15T09:23:00;98037.09;;;0.87;88.46
83843;BME280;73869;52.336;21.182;2024-01-15T09:25:26;98010.25;;;0.76;88.64
83843;BME280;73869;52.336;21.182;2024-01-15T09:27:53;98033.81;;;0.85;89.48
83843;BME280;73869;52.336;21.182;2024-01-15T09:30:37;98037.69;;;0.89;88.36
83843;BME280;73869;52.336;21.182;2024-01-15T09:33:04;98013.25;;;0.86;88.55
83843;BME280;73869;52.336;21.182;2024-01-15T09:35:34;97985.72;;;0.85;86.75
83843;BME280;73869;52.336;21.182;2024-01-15T09:38:03;97992.22;;;0.96;85.94
83843;BME280;73869;52.336;21.182;2024-01-15T09:40:31;98021.22;;;1.17;85.00
83843;BME280;73869;52.336;21.182;2024-01-15T09:42:59;97999.53;;;1.07;85.43
83843;BME280;73869;52.336;21.182;2024-01-15T09:45:26;98014.19;;;1.22;84.87
83843;BME280;73869;52.336;21.182;2024-01-15T09:47:56;98000.84;;;1.22;84.63
83843;BME280;73869;52.336;21.182;2024-01-15T09:50:23;98019.50;;;1.29;84.21
83843;BME280;73869;52.336;21.182;2024-01-15T09:52:53;98008.84;;;1.22;84.16
83843;BME280;73869;52.336;21.182;2024-01-15T09:55:24;98000.84;;;1.22;82.66
83843;BME280;73869;52.336;21.182;2024-01-15T09:58:10;98012.03;;;1.31;83.05
83843;BME280;73869;52.336;21.182;2024-01-15T10:00:43;97983.03;;;1.10;82.89
83843;BME280;73869;52.336;21.182;2024-01-15T10:03:38;98010.41;;;1.30;83.49
83843;BME280;73869;52.336;21.182;2024-01-15T10:06:21;97995.56;;;1.16;84.46
83843;BME280;73869;52.336;21.182;2024-01-15T10:08:49;98002.47;;;1.23;82.24
83843;BME280;73869;52.336;21.182;2024-01-15T10:11:16;98007.31;;;1.33;82.95
83843;BME280;73869;52.336;21.182;2024-01-15T10:13:43;98008.56;;;1.30;81.66
83843;BME280;73869;52.336;21.182;2024-01-15T10:16:10;98017.63;;;1.29;80.36
83843;BME280;73869;52.336;21.182;2024-01-15T10:18:38;97998.31;;;1.27;80.69
83843;BME280;73869;52.336;21.182;2024-01-15T10:21:06;98000.56;;;1.30;80.54
83843;BME280;73869;52.336;21.182;2024-01-15T10:23:33;98002.72;;;1.40;80.71
83843;BME280;73869;52.336;21.182;2024-01-15T10:25:59;97997.00;;;1.36;80.43
83843;BME280;73869;52.336;21.182;2024-01-15T10:28:26;98011.13;;;1.44;79.63
83843;BME280;73869;52.336;21.182;2024-01-15T10:30:56;98001.44;;;1.42;79.17
83843;BME280;73869;52.336;21.182;2024-01-15T10:33:23;97993.41;;;1.42;80.65
83843;BME280;73869;52.336;21.182;2024-01-15T11:14:49;97988.38;;;1.34;79.35
83843;BME280;73869;52.336;21.182;2024-01-15T11:17:17;98003.09;;;1.44;79.92
83843;BME280;73869;52.336;21.182;2024-01-15T11:19:45;97993.25;;;1.37;79.94
83843;BME280;73869;52.336;21.182;2024-01-15T11:22:47;97988.31;;;1.41;79.35
83843;BME280;73869;52.336;21.182;2024-01-15T11:25:20;97980.19;;;1.29;80.92
83843;BME280;73869;52.336;21.182;2024-01-15T11:27:50;97990.59;;;1.37;81.49
83843;BME280;73869;52.336;21.182;2024-01-15T11:30:24;97987.78;;;1.32;80.96
83843;BME280;73869;52.336;21.182;2024-01-15T11:32:55;97972.31;;;1.34;80.44
83843;BME280;73869;52.336;21.182;2024-01-15T11:35:22;97979.81;;;1.44;80.89
83843;BME280;73869;52.336;21.182;2024-01-15T11:38:12;97968.13;;;1.45;80.23
83843;BME280;73869;52.336;21.182;2024-01-15T11:40:59;97952.28;;;1.25;79.66
83843;BME280;73869;52.336;21.182;2024-01-15T11:43:39;97945.00;;;1.32;79.63
83843;BME280;73869;52.336;21.182;2024-01-15T11:46:12;97966.41;;;1.51;79.00
83843;BME280;73869;52.336;21.182;2024-01-15T11:48:45;97979.81;;;1.44;81.20
83843;BME280;73869;52.336;21.182;2024-01-15T11:51:12;97963.84;;;1.37;80.31
83843;BME280;73869;52.336;21.182;2024-01-15T11:53:43;97958.50;;;1.37;79.11
83843;BME280;73869;52.336;21.182;2024-01-15T11:56:16;98000.41;;;1.25;85.13
83843;BME280;73869;52.336;21.182;2024-01-15T11:58:43;97959.31;;;0.95;87.58
83843;BME280;73869;52.336;21.182;2024-01-15T12:01:11;97973.91;;;0.99;88.05
83843;BME280;73869;52.336;21.182;2024-01-15T12:03:51;97959.81;;;0.86;89.77
83843;BME280;73869;52.336;21.182;2024-01-15T12:06:25;97940.75;;;0.82;89.03
83843;BME280;73869;52.336;21.182;2024-01-15T12:09:05;97931.03;;;0.88;86.95
83843;BME280;73869;52.336;21.182;2024-01-15T12:11:38;97949.66;;;1.19;84.60
83843;BME280;73869;52.336;21.182;2024-01-15T12:14:26;97970.81;;;1.20;84.32
83843;BME280;73869;52.336;21.182;2024-01-15T12:16:56;97970.25;;;1.36;80.07
83843;BME280;73869;52.336;21.182;2024-01-15T12:19:27;97948.84;;;1.18;81.92
83843;BME280;73869;52.336;21.182;2024-01-15T12:21:55;97923.53;;;1.21;80.25
83843;BME280;73869;52.336;21.182;2024-01-15T12:24:22;97958.44;;;1.44;81.58
83843;BME280;73869;52.336;21.182;2024-01-15T12:26:49;97964.38;;;1.46;81.97
83843;BME280;73869;52.336;21.182;2024-01-15T12:29:19;97926.22;;;1.21;80.22
83843;BME280;73869;52.336;21.182;2024-01-15T12:31:49;97919.72;;;1.10;80.93
83843;BME280;73869;52.336;21.182;2024-01-15T12:34:30;97923.59;;;1.14;83.12
83843;BME280;73869;52.336;21.182;2024-01-15T12:37:15;97930.09;;;1.00;85.10
83843;BME280;73869;52.336;21.182;2024-01-15T12:39:52;97898.09;;;0.94;84.48
83843;BME280;73869;52.336;21.182;2024-01-15T12:42:23;97904.03;;;0.96;83.39
83843;BME280;73869;52.336;21.182;2024-01-15T12:44:49;97901.59;;;0.94;83.91
83843;BME280;73869;52.336;21.182;2024-01-15T12:47:16;97891.78;;;0.88;82.73
83843;BME280;73869;52.336;21.182;2024-01-15T12:49:47;97942.22;;;1.03;83.14
83843;BME280;73869;52.336;21.182;2024-01-15T12:52:20;97964.84;;;1.00;84.62
83843;BME280;73869;52.336;21.182;2024-01-15T12:54:47;97927.50;;;0.69;85.78
83843;BME280;73869;52.336;21.182;2024-01-15T12:57:15;97938.06;;;0.82;86.48
83843;BME280;73869;52.336;21.182;2024-01-15T12:59:42;97951.81;;;0.86;87.05
83843;BME280;73869;52.336;21.182;2024-01-15T13:02:10;97960.72;;;0.80;87.41
83843;BME280;73869;52.336;21.182;2024-01-15T13:04:37;97909.50;;;0.58;87.79
83843;BME280;73869;52.336;21.182;2024-01-15T13:07:06;97942.66;;;0.75;87.77
83843;BME280;73869;52.336;21.182;2024-01-15T13:09:33;97957.38;;;0.84;86.98
83843;BME280;73869;52.336;21.182;2024-01-15T13:12:03;97940.97;;;0.81;87.47
83843;BME280;73869;52.336;21.182;2024-01-15T13:14:31;97957.81;;;0.81;86.72
83843;BME280;73869;52.336;21.182;2024-01-15T13:16:58;97936.44;;;0.81;85.40
83843;BME280;73869;52.336;21.182;2024-01-15T13:19:24;97961.25;;;0.88;85.75
83843;BME280;73869;52.336;21.182;2024-01-15T13:21:53;97948.31;;;0.85;85.02
83843;BME280;73869;52.336;21.182;2024-01-15T13:24:21;97950.13;;;0.91;84.35
83843;BME280;73869;52.336;21.182;2024-01-15T13:26:48;97962.81;;;0.96;83.93
83843;BME280;73869;52.336;21.182;2024-01-15T13:29:14;97967.50;;;1.00;84.39
83843;BME280;73869;52.336;21.182;2024-01-15T13:31:41;97957.97;;;0.86;85.53
83843;BME280;73869;52.336;21.182;2024-01-15T13:34:07;97943.25;;;0.77;85.68
83843;BME280;73869;52.336;21.182;2024-01-15T13:36:34;97955.16;;;0.81;86.58
83843;BME280;73869;52.336;21.182;2024-01-15T13:39:01;97957.00;;;0.81;85.22
83843;BME280;73869;52.336;21.182;2024-01-15T13:41:29;97963.00;;;0.76;85.66
83843;BME280;73869;52.336;21.182;2024-01-15T13:43:56;97957.44;;;0.78;86.16
83843;BME280;73869;52.336;21.182;2024-01-15T13:46:25;97967.50;;;0.76;85.49